Time;durP1;ratioP1;P1;durP2;ratioP2;P2;SDS_P1;SDS_P2;PMS_P1;PMS_P2;Temp;Humidity;BMP_temperature;BMP_pressure;BME280_temperature;BME280_humidity;BME280_pressure;Samples;Min_cycle;Max_cycle;Signal;HPM_P1;HPM_P2
2021/01/16 04:59:05;;;;;;;12.53;7.40;;;;;;;-7.16;76.69;98863.30;1818304;79;22769;-62
2021/01/16 05:01:32;;;;;;;13.58;8.03;;;;;;;-7.18;76.80;98869.14;1761053;80;21136;-62
2021/01/16 05:04:01;;;;;;;11.78;5.72;;;;;;;-7.17;76.74;98875.48;1791306;80;21370;-62
2021/01/16 05:06:29;;;;;;;7.35;4.37;;;;;;;-7.30;74.77;98882.40;1791257;80;21092;-62
2021/01/16 05:08:59;;;;;;;8.68;5.28;;;;;;;-7.50;74.52;98882.00;1791313;80;21489;-62
2021/01/16 05:11:42;;;;;;;8.73;5.28;;;;;;;-7.62;74.83;98894.39;1791269;80;21079;-62
2021/01/16 05:14:17;;;;;;;6.28;4.58;;;;;;;-7.71;74.84;98897.55;1791399;80;21025;-62
2021/01/16 05:16:55;;;;;;;6.47;4.25;;;;;;;-7.79;74.87;98910.84;1791314;80;21375;-63
2021/01/16 05:19:29;;;;;;;6.78;4.85;;;;;;;-7.87;74.84;98907.28;1791047;80;21136;-62
2021/01/16 05:21:56;;;;;;;6.40;4.08;;;;;;;-8.01;73.37;98915.81;1790925;80;21496;-62
2021/01/16 05:24:24;;;;;;;6.05;4.30;;;;;;;-8.19;73.26;98919.17;1791281;80;21060;-61
2021/01/16 05:27:05;;;;;;;7.72;3.80;;;;;;;-8.38;72.78;98925.04;1791302;80;21556;-62
2021/01/16 05:29:35;;;;;;;5.92;3.95;;;;;;;-8.52;72.79;98938.12;1791332;80;22363;-62
2021/01/16 05:32:05;;;;;;;7.03;4.28;;;;;;;-8.64;72.71;98942.46;1791263;80;21545;-62
2021/01/16 05:34:34;;;;;;;5.58;3.87;;;;;;;-8.71;72.71;98945.62;1791378;80;21124;-62
2021/01/16 05:37:02;;;;;;;6.62;4.03;;;;;;;-8.80;73.38;98950.44;1791335;80;21508;-62
2021/01/16 05:39:33;;;;;;;9.48;3.70;;;;;;;-8.83;73.17;98944.91;1791296;80;21140;-62
2021/01/16 05:42:04;;;;;;;9.60;4.25;;;;;;;-8.81;72.49;98958.81;1791339;80;21537;-62
2021/01/16 05:44:33;;;;;;;5.70;3.40;;;;;;;-8.83;71.19;98956.25;1791352;80;21159;-62
2021/01/16 05:47:01;;;;;;;5.78;3.30;;;;;;;-8.90;70.36;98961.92;1791247;80;21111;-62
2021/01/16 05:49:29;;;;;;;5.55;3.35;;;;;;;-8.92;70.76;98969.84;1781700;80;21057;-62
2021/01/16 05:51:58;;;;;;;5.72;3.70;;;;;;;-8.91;70.94;98972.81;1760004;81;21081;-62
2021/01/16 05:54:29;;;;;;;5.28;3.37;;;;;;;-8.92;70.77;98976.55;1759997;80;21259;-63
2021/01/16 05:56:57;;;;;;;6.55;3.67;;;;;;;-8.94;70.33;98988.25;1759609;81;21490;-63
2021/01/16 05:59:28;;;;;;;8.88;3.87;;;;;;;-8.97;70.57;98989.02;1737466;82;21464;-61
2021/01/16 06:01:55;;;;;;;6.62;3.92;;;;;;;-8.97;69.90;98997.83;1710130;82;21570;-62
2021/01/16 06:04:24;;;;;;;5.25;3.35;;;;;;;-9.05;69.53;98998.89;1735338;82;21571;-63
2021/01/16 06:06:51;;;;;;;5.70;3.67;;;;;;;-9.09;69.79;99007.58;1734704;81;21453;-63
2021/01/16 06:09:20;;;;;;;4.50;3.35;;;;;;;-9.14;69.85;99022.95;1736815;82;21165;-65
2021/01/16 06:11:50;;;;;;;6.58;3.92;;;;;;;-9.15;69.75;99025.87;1736766;82;21055;-62
2021/01/16 06:14:18;;;;;;;7.60;3.98;;;;;;;-9.23;69.53;99023.56;1736748;82;21130;-63
2021/01/16 06:16:50;;;;;;;7.80;3.90;;;;;;;-9.33;69.71;99039.59;1736439;80;21063;-62
2021/01/16 06:19:26;;;;;;;7.08;4.15;;;;;;;-9.45;68.41;99049.76;1737009;82;21190;-63
2021/01/16 06:21:54;;;;;;;7.08;3.83;;;;;;;-9.61;67.41;99053.88;1736887;82;21551;-63
2021/01/16 06:24:24;;;;;;;7.80;4.72;;;;;;;-9.71;67.86;99050.59;1736818;82;21102;-63
2021/01/16 06:26:57;;;;;;;7.80;4.20;;;;;;;-9.80;67.18;99057.88;1736841;82;21154;-63
2021/01/16 06:29:34;;;;;;;8.90;5.12;;;;;;;-9.93;67.28;99055.74;1736595;82;21087;-62
2021/01/16 06:32:10;;;;;;;7.15;4.00;;;;;;;-10.00;66.77;99064.77;1735909;82;21339;-64
2021/01/16 06:34:40;;;;;;;8.05;4.08;;;;;;;-10.05;65.54;99062.50;1732840;82;21111;-63
2021/01/16 06:37:16;;;;;;;8.30;4.35;;;;;;;-10.12;64.65;99066.45;1734842;82;21249;-62
2021/01/16 06:39:45;;;;;;;7.70;3.85;;;;;;;-10.21;64.15;99076.66;1736781;82;21178;-62
2021/01/16 06:42:21;;;;;;;7.12;3.95;;;;;;;-10.35;63.21;99077.42;1736808;81;21173;-64
2021/01/16 06:45:02;;;;;;;6.35;3.95;;;;;;;-10.52;62.88;99081.01;1711148;82;21344;-63
2021/01/16 06:47:35;;;;;;;8.40;4.15;;;;;;;-10.71;63.31;99084.53;1714561;82;21142;-63
2021/01/16 06:50:08;;;;;;;8.10;4.47;;;;;;;-10.81;63.78;99086.27;1709104;82;21650;-62
2021/01/16 06:52:38;;;;;;;8.40;4.12;;;;;;;-10.85;63.62;99090.72;1736718;82;21066;-62
2021/01/16 06:55:07;;;;;;;9.45;5.12;;;;;;;-10.93;62.93;99099.61;1736222;82;21083;-63
2021/01/16 06:57:35;;;;;;;7.87;4.10;;;;;;;-10.98;62.87;99103.20;1734341;81;21622;-64
2021/01/16 07:00:09;;;;;;;6.62;3.75;;;;;;;-11.00;62.45;99098.55;1734082;82;21153;-63
2021/01/16 07:02:41;;;;;;;9.00;4.65;;;;;;;-10.99;62.28;99100.66;1736554;82;21027;-63
2021/01/16 07:05:20;;;;;;;9.65;4.87;;;;;;;-11.00;62.43;99101.46;1736854;82;21526;-62
2021/01/16 07:07:52;;;;;;;9.50;5.20;;;;;;;-11.00;62.48;99108.59;1736725;82;21059;-62
2021/01/16 07:10:28;;;;;;;11.00;5.10;;;;;;;-10.90;62.74;99119.42;1736733;82;21380;-62
2021/01/16 07:12:53;;;;;;;8.48;4.55;;;;;;;-10.81;62.65;99119.78;1736381;82;21194;-62
2021/01/16 07:23:28;;;;;;;8.65;4.83;;;;;;;-10.64;61.04;99130.84;1730115;81;21233;-65
2021/01/16 07:25:57;;;;;;;7.97;4.37;;;;;;;-10.67;60.41;99145.80;1728602;81;22340;-63
2021/01/16 07:28:25;;;;;;;8.85;4.78;;;;;;;-10.67;59.83;99143.29;1699376;82;21525;-64
2021/01/16 07:30:55;;;;;;;8.83;4.67;;;;;;;-10.72;59.49;99148.14;1732027;81;21173;-65
2021/01/16 07:33:27;;;;;;;10.85;4.55;;;;;;;-10.78;58.54;99150.41;1732298;81;21141;-63
2021/01/16 07:35:58;;;;;;;6.45;3.98;;;;;;;-10.86;59.05;99151.80;1732371;81;21070;-64
2021/01/16 07:38:27;;;;;;;7.62;3.50;;;;;;;-10.93;57.91;99158.64;1728680;82;21234;-63
2021/01/16 07:40:57;;;;;;;11.05;5.08;;;;;;;-11.02;57.71;99164.18;1729873;81;21082;-63
2021/01/16 07:43:31;;;;;;;8.13;3.80;;;;;;;-11.05;57.94;99164.45;1732282;82;21086;-63
2021/01/16 07:46:01;;;;;;;9.48;5.03;;;;;;;-11.04;57.61;99168.69;1731197;81;21194;-63
2021/01/16 07:48:32;;;;;;;9.70;4.55;;;;;;;-11.03;58.26;99170.00;1732027;81;21654;-62
2021/01/16 07:51:01;;;;;;;8.30;4.62;;;;;;;-10.97;57.99;99178.14;1732384;81;22335;-62
2021/01/16 07:53:30;;;;;;;7.30;4.45;;;;;;;-10.90;57.80;99174.69;1732251;81;21062;-63
2021/01/16 07:56:09;;;;;;;10.18;4.92;;;;;;;-10.83;57.12;99179.16;1732345;81;21495;-63
2021/01/16 07:58:41;;;;;;;9.30;5.40;;;;;;;-10.78;56.84;99194.38;1742823;81;21742;-61
2021/01/16 08:01:27;;;;;;;8.50;4.67;;;;;;;-10.74;57.29;99197.47;1751434;81;21644;-63
2021/01/16 08:04:19;;;;;;;8.90;4.53;;;;;;;-10.63;57.01;99198.75;1747461;81;23475;-62
2021/01/16 08:07:09;;;;;;;5.75;3.67;;;;;;;-10.61;56.34;99198.41;1758562;81;21200;-61
2021/01/16 08:09:52;;;;;;;8.68;4.62;;;;;;;-10.58;56.16;99198.89;1661412;86;21686;-63
2021/01/16 08:12:26;;;;;;;8.30;4.80;;;;;;;-10.57;55.76;99203.13;1632509;87;21264;-62
2021/01/16 08:15:02;;;;;;;11.45;5.50;;;;;;;-10.52;56.27;99200.39;1610655;86;21829;-62
2021/01/16 08:17:36;;;;;;;7.87;4.15;;;;;;;-10.41;56.25;99210.46;1632697;86;21382;-61
2021/01/16 08:20:28;;;;;;;8.38;5.20;;;;;;;-10.30;54.84;99220.50;1631619;87;21138;-61
2021/01/16 08:22:57;;;;;;;8.80;4.20;;;;;;;-10.35;54.72;99211.06;1580791;88;21135;-60
2021/01/16 08:25:27;;;;;;;9.78;4.97;;;;;;;-10.42;54.60;99212.52;1629838;87;21119;-61
2021/01/16 08:28:00;;;;;;;6.25;4.05;;;;;;;-10.45;54.51;99209.89;1604421;89;21598;-61
2021/01/16 08:30:30;;;;;;;14.45;5.75;;;;;;;-10.43;54.52;99214.97;1604337;89;21371;-62
2021/01/16 08:33:12;;;;;;;8.08;4.60;;;;;;;-10.48;54.24;99215.65;1604325;88;21282;-63
2021/01/16 08:35:48;;;;;;;8.83;4.47;;;;;;;-10.56;54.33;99224.55;1604535;89;21195;-62
2021/01/16 08:38:21;;;;;;;8.33;4.53;;;;;;;-10.61;53.88;99237.77;1608315;87;21586;-62
2021/01/16 08:41:08;;;;;;;12.90;4.83;;;;;;;-10.69;54.08;99240.37;1653592;85;21642;-64
2021/01/16 08:43:44;;;;;;;8.88;4.83;;;;;;;-10.77;54.06;99249.25;1679211;85;21238;-64
2021/01/16 08:46:36;;;;;;;9.28;4.45;;;;;;;-10.82;54.40;99243.67;1679218;85;21146;-64
2021/01/16 08:51:54;;;;;;;9.85;4.70;;;;;;;-11.01;54.63;99237.87;1889679;76;23258;-66
2021/01/16 08:54:24;;;;;;;8.85;4.70;;;;;;;-11.14;54.90;99244.89;1859877;77;21461;-69
2021/01/16 08:56:56;;;;;;;9.50;4.90;;;;;;;-11.21;55.17;99238.33;1860869;77;22148;-67
2021/01/16 08:59:33;;;;;;;7.53;4.70;;;;;;;-11.27;55.36;99238.06;1858683;77;21080;-66
2021/01/16 09:02:16;;;;;;;7.85;4.22;;;;;;;-11.38;55.54;99243.03;1860890;77;20903;-64
2021/01/16 09:04:45;;;;;;;9.35;4.45;;;;;;;-11.50;55.81;99254.29;1861085;77;21472;-68
2021/01/16 09:07:23;;;;;;;9.15;4.72;;;;;;;-11.57;56.11;99239.76;1860870;77;21151;-63
2021/01/16 09:10:03;;;;;;;10.78;5.53;;;;;;;-11.64;56.51;99241.97;1860924;77;22184;-65
2021/01/16 09:12:40;;;;;;;10.60;4.70;;;;;;;-11.67;56.34;99238.07;1860811;77;20942;-68
2021/01/16 09:15:28;;;;;;;11.65;4.87;;;;;;;-11.69;56.60;99239.66;1860853;77;21115;-65
2021/01/16 09:18:12;;;;;;;11.25;5.12;;;;;;;-11.73;56.90;99236.16;1860204;77;21572;-66
2021/01/16 09:20:56;;;;;;;9.03;4.55;;;;;;;-11.72;57.00;99234.50;1861022;77;21080;-65
2021/01/16 09:23:31;;;;;;;12.35;4.85;;;;;;;-11.69;56.66;99228.37;1860896;77;21377;-66
2021/01/16 09:26:10;;;;;;;8.85;5.03;;;;;;;-11.70;56.63;99218.73;1860735;77;21161;-63
2021/01/16 09:29:04;;;;;;;9.33;4.60;;;;;;;-11.70;56.83;99220.38;1860813;77;21136;-64
2021/01/16 09:31:42;;;;;;;11.18;5.60;;;;;;;-11.73;56.96;99231.14;1860713;77;21462;-65
2021/01/16 09:34:17;;;;;;;7.22;4.10;;;;;;;-11.72;57.56;99234.11;1860802;77;21096;-63
2021/01/16 09:36:58;;;;;;;10.70;5.25;;;;;;;-11.64;57.40;99234.05;1860824;77;21356;-62
2021/01/16 09:39:31;;;;;;;8.90;4.78;;;;;;;-11.56;57.24;99225.56;1860759;77;21136;-66
2021/01/16 09:42:03;;;;;;;8.70;5.28;;;;;;;-11.54;56.89;99220.22;1860844;77;21564;-65
2021/01/16 09:44:50;;;;;;;6.95;4.42;;;;;;;-11.57;57.19;99217.18;1860779;77;21053;-65
2021/01/16 09:47:32;;;;;;;11.78;5.33;;;;;;;-11.54;57.38;99223.58;1860677;77;21112;-64
2021/01/16 09:50:11;;;;;;;9.50;5.03;;;;;;;-11.52;57.72;99220.74;1843776;77;21197;-63
2021/01/16 09:52:50;;;;;;;11.83;6.12;;;;;;;-11.47;57.18;99213.41;1829718;78;21840;-62
2021/01/16 09:55:27;;;;;;;10.75;5.40;;;;;;;-11.43;57.29;99208.98;1828779;78;21135;-64
2021/01/16 09:57:54;;;;;;;9.95;5.05;;;;;;;-11.40;57.27;99215.39;1830527;78;21080;-64
2021/01/16 10:00:27;;;;;;;8.63;4.70;;;;;;;-11.44;57.53;99207.66;1830047;78;21147;-63
2021/01/16 10:07:16;;;;;;;7.92;4.47;;;;;;;-11.46;57.68;99202.58;1829909;78;21112;-66
2021/01/16 10:09:49;;;;;;;7.92;4.97;;;;;;;-11.49;57.61;99199.94;1829898;78;21192;-69
2021/01/16 10:12:40;;;;;;;10.48;5.22;;;;;;;-11.51;57.49;99195.25;1830028;78;21171;-61
2021/01/16 10:15:18;;;;;;;13.62;5.85;;;;;;;-11.49;57.72;99202.45;1829935;78;21116;-63
2021/01/16 10:17:52;;;;;;;12.05;6.53;;;;;;;-11.46;57.20;99206.34;1830060;78;22087;-63
2021/01/16 10:20:22;;;;;;;9.05;5.00;;;;;;;-11.41;57.37;99198.61;1829872;78;21141;-64
2021/01/16 10:22:53;;;;;;;15.45;6.20;;;;;;;-11.39;57.48;99190.75;1829947;78;21139;-65
2021/01/16 10:25:22;;;;;;;11.15;5.53;;;;;;;-11.37;57.11;99190.38;1794840;78;21020;-64
2021/01/16 10:27:52;;;;;;;10.88;5.83;;;;;;;-11.36;57.35;99184.97;1829981;78;21493;-65
2021/01/16 10:30:23;;;;;;;10.45;5.05;;;;;;;-11.36;57.09;99182.45;1829786;78;21560;-64
2021/01/16 10:32:52;;;;;;;10.25;5.05;;;;;;;-11.37;57.11;99194.15;1802676;78;21172;-65
2021/01/16 10:35:26;;;;;;;11.30;6.37;;;;;;;-11.36;56.93;99182.45;1829722;78;21187;-69
2021/01/16 10:38:00;;;;;;;12.65;6.62;;;;;;;-11.39;57.40;99184.87;1829675;78;21501;-71
2021/01/16 10:40:29;;;;;;;8.75;5.25;;;;;;;-11.36;57.65;99184.57;1830058;78;21100;-71
2021/01/16 10:42:58;;;;;;;8.80;4.83;;;;;;;-11.30;57.50;99182.31;1803083;78;21574;-64
2021/01/16 10:45:30;;;;;;;12.13;5.62;;;;;;;-11.23;57.11;99181.78;1829885;78;21160;-68
2021/01/16 10:48:18;;;;;;;9.28;4.65;;;;;;;-11.18;57.57;99186.95;1829945;78;21144;-67
2021/01/16 10:50:46;;;;;;;13.38;6.47;;;;;;;-11.12;56.88;99185.95;1792532;78;21591;-67
2021/01/16 10:53:15;;;;;;;13.68;6.25;;;;;;;-11.08;57.54;99185.67;1826486;78;21481;-67
2021/01/16 10:55:55;;;;;;;11.93;6.75;;;;;;;-11.03;57.49;99187.58;1826421;78;22169;-65
2021/01/16 10:58:27;;;;;;;14.43;6.90;;;;;;;-11.01;56.92;99181.36;1821826;78;21068;-67
2021/01/16 11:00:59;;;;;;;11.33;6.37;;;;;;;-11.02;56.84;99179.65;1826464;78;21060;-69
2021/01/16 11:03:31;;;;;;;8.70;5.45;;;;;;;-11.05;57.15;99185.41;1826535;78;21108;-65
2021/01/16 11:06:08;;;;;;;11.83;6.53;;;;;;;-11.06;56.98;99177.80;1826004;78;21140;-65
2021/01/16 11:08:37;;;;;;;20.43;8.45;;;;;;;-11.02;57.21;99177.14;1826458;78;21435;-64
2021/01/16 11:11:29;;;;;;;13.48;6.40;;;;;;;-10.93;57.34;99179.58;1826408;78;21603;-63
2021/01/16 11:13:58;;;;;;;13.43;6.65;;;;;;;-10.91;56.79;99172.11;1826328;78;21100;-63
2021/01/16 11:16:26;;;;;;;14.93;9.13;;;;;;;-11.03;56.92;99177.93;1826379;78;21163;-70
2021/01/16 11:19:08;;;;;;;11.48;6.50;;;;;;;-11.06;57.18;99172.39;1826452;78;21489;-67
2021/01/16 11:21:52;;;;;;;15.05;7.78;;;;;;;-11.06;57.41;99176.16;1826421;78;22269;-65
2021/01/16 11:24:55;;;;;;;10.85;5.62;;;;;;;-11.04;57.24;99165.77;1826339;78;21065;-63
2021/01/16 11:27:26;;;;;;;11.90;6.20;;;;;;;-11.08;57.21;99168.09;1826542;78;28098;-66
2021/01/16 11:30:08;;;;;;;9.10;4.90;;;;;;;-11.16;57.40;99166.13;1826412;78;20934;-67
2021/01/16 11:32:39;;;;;;;13.45;7.22;;;;;;;-11.19;57.25;99166.44;1826362;78;21371;-65
2021/01/16 11:35:13;;;;;;;12.37;6.67;;;;;;;-11.24;57.94;99155.36;1826530;78;21327;-62
2021/01/16 11:37:56;;;;;;;15.15;7.75;;;;;;;-11.23;58.08;99154.56;1826435;78;21063;-64
2021/01/16 11:40:36;;;;;;;9.88;5.92;;;;;;;-11.18;58.29;99166.87;1826385;78;21049;-65
2021/01/16 11:43:09;;;;;;;13.72;6.75;;;;;;;-11.14;58.65;99157.41;1826520;78;21083;-64
2021/01/16 11:45:37;;;;;;;10.43;6.12;;;;;;;-11.05;58.65;99156.92;1826380;78;21156;-66
2021/01/16 11:48:07;;;;;;;10.50;6.35;;;;;;;-10.97;58.46;99148.01;1826271;78;21360;-63
2021/01/16 11:50:38;;;;;;;12.78;6.90;;;;;;;-10.98;58.08;99148.41;1825036;77;21167;-63
2021/01/16 11:53:10;;;;;;;15.43;7.50;;;;;;;-11.09;58.57;99149.66;1828656;78;21187;-63
2021/01/16 11:55:39;;;;;;;13.83;7.50;;;;;;;-11.14;58.94;99152.39;1829786;78;21584;-63
2021/01/16 11:58:07;;;;;;;17.02;8.98;;;;;;;-11.21;57.75;99143.78;1829472;78;21214;-64
2021/01/16 12:00:36;;;;;;;14.20;6.92;;;;;;;-11.35;57.28;99144.88;1807520;78;22275;-61
2021/01/16 12:03:07;;;;;;;13.58;6.37;;;;;;;-11.49;57.23;99148.50;1791647;78;21579;-62
2021/01/16 12:05:36;;;;;;;11.70;6.42;;;;;;;-11.66;57.33;99157.86;1818892;78;21076;-61
2021/01/16 12:08:05;;;;;;;9.55;5.72;;;;;;;-11.75;57.42;99160.38;1820998;78;21484;-61
2021/01/16 12:10:35;;;;;;;11.70;6.20;;;;;;;-11.76;57.20;99164.96;1820756;78;21480;-62
2021/01/16 12:13:03;;;;;;;8.93;4.72;;;;;;;-11.83;57.07;99169.28;1820816;78;21199;-60
2021/01/16 12:15:32;;;;;;;11.38;5.45;;;;;;;-11.92;57.10;99172.25;1755303;78;21488;-63
2021/01/16 12:18:00;;;;;;;13.05;5.45;;;;;;;-11.98;57.10;99171.59;1829884;78;21108;-68
2021/01/16 12:20:28;;;;;;;9.93;4.78;;;;;;;-12.03;56.35;99168.05;1829983;78;21555;-66
2021/01/16 12:23:02;;;;;;;10.43;4.92;;;;;;;-12.08;56.15;99173.26;1829225;78;21123;-68
2021/01/16 12:25:59;;;;;;;9.18;4.92;;;;;;;-12.15;56.09;99184.20;1805776;77;22140;-68
2021/01/16 12:28:29;;;;;;;13.22;5.30;;;;;;;-12.25;56.54;99188.83;1762633;79;21122;-65
2021/01/16 12:30:57;;;;;;;11.05;4.80;;;;;;;-12.30;56.43;99183.15;1788621;79;21122;-68
2021/01/16 12:33:26;;;;;;;11.63;6.00;;;;;;;-12.38;56.38;99184.45;1788509;79;21194;-67
2021/01/16 12:35:54;;;;;;;11.00;5.65;;;;;;;-12.42;56.57;99194.75;1806415;79;21094;-69
2021/01/16 12:38:22;;;;;;;11.12;5.33;;;;;;;-12.43;56.86;99193.44;1811159;77;22109;-62
2021/01/16 12:40:50;;;;;;;10.65;4.97;;;;;;;-12.38;56.63;99192.83;1829795;78;21144;-62
2021/01/16 12:43:20;;;;;;;9.78;4.50;;;;;;;-12.37;56.58;99197.05;1829953;78;21095;-62
2021/01/16 12:45:50;;;;;;;11.35;4.85;;;;;;;-12.41;56.32;99199.38;1829919;78;21603;-62
2021/01/16 12:48:18;;;;;;;12.55;5.75;;;;;;;-12.49;56.43;99203.17;1829856;78;21167;-62
2021/01/16 12:50:46;;;;;;;8.50;4.35;;;;;;;-12.59;56.50;99205.67;1829828;77;22259;-61
2021/01/16 12:53:15;;;;;;;15.65;6.17;;;;;;;-12.66;56.52;99203.67;1829840;78;21084;-62
2021/01/16 12:55:45;;;;;;;10.13;5.40;;;;;;;-12.74;56.47;99212.47;1829896;78;21482;-63
2021/01/16 12:58:14;;;;;;;9.13;4.97;;;;;;;-12.81;56.82;99200.09;1829827;78;21484;-69
2021/01/16 13:00:43;;;;;;;11.73;4.80;;;;;;;-12.89;57.05;99205.12;1829983;78;21481;-64
2021/01/16 13:03:12;;;;;;;9.50;5.15;;;;;;;-12.98;56.95;99207.18;1829862;78;22726;-67
2021/01/16 13:05:41;;;;;;;9.73;4.53;;;;;;;-13.07;57.39;99204.27;1829899;78;21548;-66
2021/01/16 13:08:14;;;;;;;8.45;4.95;;;;;;;-13.09;57.59;99214.59;1829792;78;21158;-66
2021/01/16 13:10:50;;;;;;;9.95;5.15;;;;;;;-13.12;57.44;99230.71;1829764;78;21092;-66
2021/01/16 13:13:19;;;;;;;7.85;4.83;;;;;;;-13.13;57.37;99232.75;1795289;78;21087;-64
2021/01/16 13:15:48;;;;;;;10.20;4.97;;;;;;;-13.17;57.38;99230.52;1829618;78;21236;-65
2021/01/16 13:18:19;;;;;;;12.20;5.90;;;;;;;-13.22;57.60;99232.36;1829680;78;21179;-65
2021/01/16 13:20:55;;;;;;;11.85;5.65;;;;;;;-13.22;57.64;99230.72;1829935;78;21160;-64
2021/01/16 13:23:46;;;;;;;10.15;5.70;;;;;;;-13.23;57.50;99232.75;1829663;78;21064;-64
2021/01/16 13:26:18;;;;;;;12.55;5.78;;;;;;;-13.27;57.59;99235.49;1829153;78;21029;-65
2021/01/16 13:28:53;;;;;;;8.55;4.97;;;;;;;-13.23;57.75;99239.01;1829959;78;21615;-64
2021/01/16 13:31:25;;;;;;;7.87;3.85;;;;;;;-13.19;57.31;99245.02;1829754;78;21055;-64
2021/01/16 13:33:54;;;;;;;11.80;6.12;;;;;;;-13.28;57.42;99245.03;1829996;78;21120;-64
2021/01/16 13:36:27;;;;;;;9.40;5.30;;;;;;;-13.33;57.74;99240.58;1829925;78;21525;-64
2021/01/16 13:38:56;;;;;;;13.38;6.10;;;;;;;-13.34;57.86;99238.86;1830086;78;21044;-64
2021/01/16 13:41:25;;;;;;;12.30;6.25;;;;;;;-13.40;57.93;99232.34;1830014;78;21364;-65
2021/01/16 13:43:55;;;;;;;12.98;5.87;;;;;;;-13.45;58.14;99227.10;1829939;78;21827;-64
2021/01/16 13:46:40;;;;;;;13.35;6.65;;;;;;;-13.45;58.45;99223.74;1829981;78;21164;-65
2021/01/16 13:49:09;;;;;;;9.33;5.20;;;;;;;-13.47;58.45;99225.30;1793569;77;21116;-64
2021/01/16 13:51:37;;;;;;;11.20;5.72;;;;;;;-13.45;58.73;99235.00;1816135;78;21150;-65
2021/01/16 13:54:09;;;;;;;18.95;6.62;;;;;;;-13.43;58.72;99234.30;1796077;80;21149;-63
2021/01/16 13:56:50;;;;;;;17.73;8.63;;;;;;;-13.38;58.77;99236.99;1795936;80;21161;-63
2021/01/16 13:59:29;;;;;;;16.27;7.70;;;;;;;-13.33;58.56;99237.69;1796289;80;21118;-64
2021/01/16 14:02:00;;;;;;;11.95;6.42;;;;;;;-13.32;58.52;99246.91;1796011;80;21146;-63
2021/01/16 14:04:28;;;;;;;12.78;6.22;;;;;;;-13.36;58.33;99244.18;1796059;80;21111;-66
2021/01/16 14:07:01;;;;;;;17.05;7.58;;;;;;;-13.41;58.52;99247.73;1795128;80;21619;-64
2021/01/16 14:09:31;;;;;;;15.03;7.12;;;;;;;-13.41;58.51;99244.38;1796135;80;21090;-63
2021/01/16 14:12:03;;;;;;;12.20;5.62;;;;;;;-13.45;58.64;99242.11;1795963;80;21118;-63
2021/01/16 14:14:34;;;;;;;9.70;5.25;;;;;;;-13.46;58.40;99243.28;1796030;80;21091;-64
2021/01/16 14:17:14;;;;;;;8.75;4.80;;;;;;;-13.59;58.31;99250.16;1795774;80;21058;-65
2021/01/16 14:20:01;;;;;;;12.93;5.33;;;;;;;-13.76;58.23;99250.11;1795891;80;21366;-64
2021/01/16 14:22:40;;;;;;;9.98;4.80;;;;;;;-13.95;58.42;99245.83;1796018;80;22035;-63
2021/01/16 14:25:13;;;;;;;8.78;4.87;;;;;;;-14.03;58.76;99244.59;1795996;80;21106;-65
2021/01/16 14:27:43;;;;;;;;;;;;;;;-14.12;58.96;99241.61;1796144;80;21574;-63
2021/01/16 14:30:18;;;;;;;18.20;6.22;;;;;;;-14.24;59.13;99236.85;1796050;80;20246;-63
2021/01/16 14:33:06;;;;;;;13.62;6.33;;;;;;;-14.30;59.35;99241.13;1795978;80;21334;-64
2021/01/16 14:35:36;;;;;;;9.15;4.87;;;;;;;-14.26;59.58;99236.30;1796071;80;21076;-64
